Time;durP1;ratioP1;P1;durP2;ratioP2;P2;SDS_P1;SDS_P2;PMS_P1;PMS_P2;Temp;Humidity;BMP_temperature;BMP_pressure;BME280_temperature;BME280_humidity;BME280_pressure;Samples;Min_cycle;Max_cycle;Signal;HPM_P1;HPM_P2
2023/05/08 00:00:47;;;;;;;3.20;2.90;;;;;;;12.84;100.00;98044.25;1702011;75;751465;-72
2023/05/08 00:03:17;;;;;;;3.20;2.90;;;;;;;12.84;100.00;98047.75;1710985;75;679164;-73
2023/05/08 00:05:47;;;;;;;6.05;4.20;;;;;;;12.62;100.00;98044.72;1702650;75;732295;-76
2023/05/08 00:08:20;;;;;;;3.60;3.20;;;;;;;12.87;100.00;98046.03;1710658;75;679172;-73
2023/05/08 00:10:50;;;;;;;4.15;3.65;;;;;;;12.56;100.00;98048.16;1702405;75;741156;-73
2023/05/08 00:13:20;;;;;;;4.45;4.05;;;;;;;12.65;100.00;98046.50;1707410;75;969196;-73
2023/05/08 00:15:51;;;;;;;4.10;3.70;;;;;;;12.53;100.00;98053.84;1701228;75;783039;-73
2023/05/08 00:18:23;;;;;;;4.85;4.35;;;;;;;12.35;100.00;98054.84;1711248;75;676489;-73
2023/05/08 00:20:54;;;;;;;4.65;4.15;;;;;;;12.24;100.00;98051.94;1702353;75;738317;-74
2023/05/08 00:23:27;;;;;;;4.90;4.50;;;;;;;12.13;100.00;98055.28;1710557;75;728730;-76
2023/05/08 00:25:57;;;;;;;5.30;4.40;;;;;;;12.14;100.00;98056.78;1702229;75;750149;-75
2023/05/08 00:28:27;;;;;;;4.10;3.70;;;;;;;12.06;100.00;98061.19;1710413;75;685119;-76
2023/05/08 00:30:57;;;;;;;3.50;3.20;;;;;;;12.17;100.00;98061.34;1689974;75;1704335;-74
2023/05/08 00:33:27;;;;;;;2.90;2.65;;;;;;;12.23;100.00;98062.19;1711021;75;672050;-75
2023/05/08 00:36:03;;;;;;;3.10;2.80;;;;;;;12.15;100.00;98055.59;1702543;75;742731;-76
2023/05/08 00:38:38;;;;;;;2.70;2.50;;;;;;;12.17;100.00;98055.09;1709292;75;674758;-72
2023/05/08 00:41:08;;;;;;;2.50;2.30;;;;;;;12.18;100.00;98065.59;1711216;75;673129;-73
2023/05/08 00:43:38;;;;;;;2.40;2.20;;;;;;;12.24;100.00;98058.22;1702846;75;675165;-73
2023/05/08 00:46:10;;;;;;;2.40;2.20;;;;;;;12.32;100.00;98072.28;1711425;75;674076;-75
2023/05/08 00:48:42;;;;;;;2.30;2.10;;;;;;;12.25;100.00;98064.47;1703175;75;682563;-73
2023/05/08 00:51:13;;;;;;;2.20;2.00;;;;;;;12.23;100.00;98075.16;1711747;75;677412;-74
2023/05/08 00:53:47;;;;;;;2.10;1.90;;;;;;;12.26;100.00;98079.69;1703682;75;674385;-74
2023/05/08 00:56:18;;;;;;;2.70;2.50;;;;;;;12.12;100.00;98083.97;1711749;75;672489;-73
2023/05/08 00:58:49;;;;;;;2.30;2.10;;;;;;;12.19;100.00;98093.78;1703461;67;677595;-72
2023/05/08 01:01:19;;;;;;;2.10;1.90;;;;;;;12.15;100.00;98088.50;1710789;75;731190;-72
2023/05/08 01:03:49;;;;;;;2.70;2.50;;;;;;;12.03;100.00;98086.84;1703534;75;675470;-72
2023/05/08 01:06:19;;;;;;;4.40;4.00;;;;;;;11.77;100.00;98092.09;1710820;75;680381;-73
2023/05/08 01:08:52;;;;;;;4.15;3.75;;;;;;;11.82;100.00;98105.16;1703491;75;678786;-72
2023/05/08 01:11:31;;;;;;;4.00;3.70;;;;;;;11.73;100.00;98098.53;1709117;75;912517;-73
2023/05/08 01:14:09;;;;;;;;;;;;;;;11.51;100.00;98098.88;1702757;75;758639;-74
2023/05/08 01:16:46;;;;;;;4.70;4.30;;;;;;;11.62;100.00;98106.56;1703436;75;690092;-73
2023/05/08 01:19:54;;;;;;;3.80;3.50;;;;;;;11.68;100.00;98118.38;1710193;75;765306;-75
2023/05/08 01:23:26;;;;;;;4.40;4.00;;;;;;;11.51;100.00;98106.34;1686723;75;1971112;-71
2023/05/08 01:26:43;;;;;;;5.10;4.65;;;;;;;11.40;100.00;98114.38;1702400;75;753260;-73
2023/05/08 01:29:58;;;;;;;4.35;3.95;;;;;;;11.39;100.00;98108.13;1702674;75;756046;-73
2023/05/08 01:32:37;;;;;;;4.20;3.80;;;;;;;11.29;100.00;98120.41;1701749;75;748156;-74
2023/05/08 01:35:19;;;;;;;6.90;6.00;;;;;;;11.08;100.00;98122.97;1703063;75;676384;-72
2023/05/08 01:38:05;;;;;;;5.75;5.25;;;;;;;11.13;100.00;98126.31;1711177;75;667630;-73
2023/05/08 01:40:49;;;;;;;7.15;6.50;;;;;;;10.98;100.00;98127.00;1702665;75;749786;-73
2023/05/08 01:43:30;;;;;;;6.10;5.50;;;;;;;11.08;100.00;98125.72;1703194;75;680916;-73
2023/05/08 01:46:06;;;;;;;5.30;4.80;;;;;;;10.97;100.00;98128.25;1711403;75;669435;-72
2023/05/08 01:48:47;;;;;;;6.25;5.75;;;;;;;10.83;100.00;98128.94;1701764;75;755180;-75
2023/05/08 01:51:23;;;;;;;5.30;4.80;;;;;;;10.94;100.00;98139.38;1703498;75;670830;-73
2023/05/08 01:53:59;;;;;;;4.10;3.70;;;;;;;11.04;100.00;98124.38;1710855;75;684563;-74
2023/05/08 01:56:32;;;;;;;3.90;3.50;;;;;;;10.96;100.00;98129.47;1702700;75;678326;-73
2023/05/08 01:59:04;;;;;;;6.10;5.50;;;;;;;10.71;100.00;98125.22;1711089;75;673270;-72
2023/05/08 02:01:36;;;;;;;5.85;5.35;;;;;;;10.56;100.00;98138.81;1701983;75;705877;-73
2023/05/08 02:04:10;;;;;;;5.80;5.20;;;;;;;10.70;100.00;98139.34;1710884;75;679966;-74
2023/05/08 02:06:41;;;;;;;5.90;5.40;;;;;;;10.55;100.00;98144.75;1701630;75;768955;-74
2023/05/08 02:09:13;;;;;;;4.90;4.50;;;;;;;10.70;100.00;98147.56;1710819;75;678551;-73
2023/05/08 02:11:46;;;;;;;5.65;5.10;;;;;;;10.58;100.00;98150.06;1702522;75;746498;-73
2023/05/08 02:14:20;;;;;;;4.60;4.20;;;;;;;10.65;100.00;98144.25;1711004;75;758819;-72
2023/05/08 02:16:53;;;;;;;6.20;5.60;;;;;;;10.55;100.00;98158.44;1702740;75;764180;-73
2023/05/08 02:19:28;;;;;;;9.20;8.00;;;;;;;10.35;100.00;98158.97;1711512;75;741403;-72
2023/05/08 02:22:01;;;;;;;6.85;6.20;;;;;;;10.34;100.00;98160.19;1702945;75;754533;-73
2023/05/08 02:24:32;;;;;;;8.80;8.00;;;;;;;10.20;100.00;98158.84;1711879;75;672371;-74
2023/05/08 02:27:03;;;;;;;7.60;6.90;;;;;;;10.13;100.00;98157.19;1687387;75;1968992;-71
2023/05/08 02:29:34;;;;;;;8.30;7.50;;;;;;;10.05;100.00;98157.97;1711343;75;676078;-73
2023/05/08 02:32:06;;;;;;;8.90;8.10;;;;;;;9.91;100.00;98157.41;1701676;75;743691;-73
2023/05/08 02:34:40;;;;;;;9.00;8.20;;;;;;;9.84;100.00;98160.44;1707557;75;1000716;-74
2023/05/08 02:37:15;;;;;;;9.60;8.70;;;;;;;9.81;100.00;98167.59;1700949;75;799358;-73
2023/05/08 02:39:49;;;;;;;7.40;6.80;;;;;;;9.87;100.00;98170.47;1711528;75;671796;-72
2023/05/08 02:42:19;;;;;;;8.35;7.55;;;;;;;9.79;100.00;98175.50;1702557;75;741670;-71
2023/05/08 02:44:50;;;;;;;7.10;6.50;;;;;;;9.86;100.00;98174.44;1711350;75;677676;-73
2023/05/08 02:47:27;;;;;;;6.65;6.05;;;;;;;9.91;100.00;98179.28;1702470;75;753882;-73
2023/05/08 02:50:11;;;;;;;6.80;6.10;;;;;;;9.76;100.00;98173.66;1703193;75;688593;-72
2023/05/08 02:52:49;;;;;;;6.70;6.10;;;;;;;9.67;100.00;98173.69;1710698;75;677953;-74
2023/05/08 02:55:35;;;;;;;6.00;5.40;;;;;;;9.82;100.00;98184.75;1703039;75;676020;-74
2023/05/08 02:58:19;;;;;;;7.50;6.80;;;;;;;9.62;100.00;98174.28;1703239;75;676905;-73
2023/05/08 03:01:00;;;;;;;5.80;5.30;;;;;;;9.76;100.00;98184.59;1710940;75;676928;-71
2023/05/08 03:03:40;;;;;;;7.00;6.40;;;;;;;9.51;100.00;98182.94;1702328;75;747168;-72
2023/05/08 03:06:17;;;;;;;6.20;5.60;;;;;;;9.65;100.00;98180.81;1700764;75;874477;-74
2023/05/08 03:08:49;;;;;;;5.10;4.70;;;;;;;9.70;100.00;98183.69;1710920;75;676047;-73
2023/05/08 03:11:26;;;;;;;5.10;4.60;;;;;;;9.66;100.00;98179.59;1703187;75;671978;-73
2023/05/08 03:14:01;;;;;;;5.10;4.60;;;;;;;9.59;100.00;98183.38;1711196;75;668825;-72
2023/05/08 03:16:37;;;;;;;5.30;4.80;;;;;;;9.56;100.00;98184.31;1701552;75;754269;-72
2023/05/08 03:19:12;;;;;;;4.80;4.40;;;;;;;9.58;100.00;98190.09;1703447;75;674221;-72
2023/05/08 03:21:48;;;;;;;4.60;4.20;;;;;;;9.62;100.00;98185.22;1696746;75;1923117;-75
2023/05/08 03:24:21;;;;;;;5.45;4.95;;;;;;;9.52;100.00;98184.44;1703278;75;676346;-72
2023/05/08 03:26:51;;;;;;;5.40;4.90;;;;;;;9.44;100.00;98185.22;1710949;75;673161;-72
2023/05/08 03:29:22;;;;;;;5.20;4.70;;;;;;;9.44;100.00;98199.63;1690569;75;1759762;-72
2023/05/08 03:31:55;;;;;;;6.70;6.00;;;;;;;9.46;100.00;98191.00;1710961;75;680169;-73
2023/05/08 03:34:27;;;;;;;4.70;4.30;;;;;;;9.57;100.00;98188.56;1702433;75;701484;-72
2023/05/08 03:37:00;;;;;;;4.50;4.10;;;;;;;9.67;100.00;98189.31;1710479;75;677739;-72
2023/05/08 03:39:30;;;;;;;5.60;5.10;;;;;;;9.58;100.00;98184.63;1702038;75;678487;-73
2023/05/08 03:42:01;;;;;;;6.80;6.20;;;;;;;9.51;100.00;98191.13;1710400;75;683065;-73
2023/05/08 03:44:32;;;;;;;6.30;5.70;;;;;;;9.49;100.00;98190.84;1701443;75;737853;-73
2023/05/08 03:47:04;;;;;;;5.20;4.70;;;;;;;9.58;100.00;98196.31;1709974;75;669186;-72
2023/05/08 03:49:35;;;;;;;5.00;4.50;;;;;;;9.49;100.00;98190.84;1701950;75;742095;-73
2023/05/08 03:52:08;;;;;;;5.40;4.90;;;;;;;9.52;100.00;98200.84;1710885;75;677432;-72
2023/05/08 03:54:39;;;;;;;4.95;4.55;;;;;;;9.52;100.00;98203.56;1701719;75;739568;-74
2023/05/08 03:57:09;;;;;;;5.45;4.95;;;;;;;9.46;100.00;98201.94;1710921;75;676500;-72
2023/05/08 03:59:50;;;;;;;6.10;5.60;;;;;;;9.47;100.00;98206.91;1702266;75;751971;-71
2023/05/08 04:02:30;;;;;;;6.90;6.30;;;;;;;9.45;100.00;98203.88;1702150;75;678496;-72
2023/05/08 04:05:20;;;;;;;7.50;6.60;;;;;;;9.42;100.00;98213.00;1710649;75;672419;-71
2023/05/08 04:08:00;;;;;;;7.45;6.75;;;;;;;9.45;100.00;98217.53;1702592;75;748872;-74
2023/05/08 04:10:37;;;;;;;8.75;7.85;;;;;;;9.45;100.00;98216.78;1702013;75;680732;-72
2023/05/08 04:13:09;;;;;;;;;;;;;;;9.49;100.00;98218.16;1700257;75;1761639;-74
2023/05/08 04:15:54;;;;;;;6.95;6.25;;;;;;;9.48;100.00;98222.13;1704661;75;678684;-76
2023/05/08 04:18:31;;;;;;;6.50;5.90;;;;;;;9.47;100.00;98214.38;1711794;75;675786;-74
2023/05/08 04:21:03;;;;;;;7.85;7.05;;;;;;;9.42;100.00;98231.38;1704094;75;749238;-77
2023/05/08 04:23:37;;;;;;;7.55;6.85;;;;;;;9.36;100.00;98231.97;1709286;75;972009;-76
2023/05/08 04:26:09;;;;;;;6.55;5.95;;;;;;;9.40;100.00;98242.75;1702034;75;794194;-76
2023/05/08 04:28:40;;;;;;;5.60;5.00;;;;;;;9.41;100.00;98241.53;1712643;75;674553;-77
2023/05/08 04:31:11;;;;;;;6.20;5.60;;;;;;;9.40;100.00;98234.53;1688313;75;1938116;-77
2023/05/08 04:33:42;;;;;;;6.10;5.50;;;;;;;9.37;100.00;98249.88;1712745;75;674601;-78
2023/05/08 04:36:15;;;;;;;5.90;5.40;;;;;;;9.38;100.00;98256.88;1704477;75;735264;-76
2023/05/08 04:38:48;;;;;;;6.50;5.90;;;;;;;9.36;100.00;98253.06;1687665;75;2873477;-75
2023/05/08 04:41:18;;;;;;;8.30;7.50;;;;;;;9.36;100.00;98256.56;1704129;75;740573;-78
2023/05/08 04:43:48;;;;;;;8.50;7.70;;;;;;;9.34;100.00;98269.16;1712948;75;670946;-76
2023/05/08 04:46:18;;;;;;;8.70;7.80;;;;;;;9.33;100.00;98259.41;1701971;75;931742;-78
2023/05/08 04:48:48;;;;;;;8.45;7.65;;;;;;;9.31;100.00;98262.63;1714279;75;679015;-77
2023/05/08 04:51:18;;;;;;;7.25;6.40;;;;;;;9.29;100.00;98270.50;1704699;75;753732;-77
2023/05/08 04:53:51;;;;;;;6.85;6.15;;;;;;;9.31;100.00;98259.13;1700936;75;1752731;-79
2023/05/08 04:56:21;;;;;;;6.15;5.55;;;;;;;9.33;100.00;98273.09;1704354;75;760699;-77
2023/05/08 04:58:52;;;;;;;6.35;5.75;;;;;;;9.32;100.00;98271.56;1714713;75;672626;-76
2023/05/08 05:01:22;;;;;;;6.20;5.60;;;;;;;9.34;100.00;98277.34;1703758;75;841839;-77
2023/05/08 05:03:52;;;;;;;6.90;6.30;;;;;;;9.29;100.00;98277.94;1701005;75;1799343;-77
2023/05/08 05:06:23;;;;;;;8.40;6.30;;;;;;;9.29;100.00;98281.44;1704568;75;749219;-78
2023/05/08 05:08:56;;;;;;;6.20;5.60;;;;;;;9.30;100.00;98282.94;1714375;75;681037;-78
2023/05/08 05:11:26;;;;;;;6.35;5.75;;;;;;;9.33;100.00;98287.53;1693347;75;1802312;-78
2023/05/08 05:13:56;;;;;;;5.90;5.35;;;;;;;9.37;100.00;98284.63;1617342;75;8886740;-77
2023/05/08 05:16:26;;;;;;;5.90;5.35;;;;;;;9.27;100.00;98286.59;1706411;75;735628;-76
2023/05/08 05:18:57;;;;;;;6.00;5.40;;;;;;;9.37;100.00;98299.06;1702306;75;1768677;-77
2023/05/08 05:21:27;;;;;;;6.25;5.65;;;;;;;9.35;100.00;98292.53;1705828;75;755428;-76
2023/05/08 05:24:00;;;;;;;5.90;5.40;;;;;;;9.36;100.00;98292.09;1714164;75;738526;-74
2023/05/08 05:26:30;;;;;;;7.60;6.90;;;;;;;9.28;100.00;98288.09;1706321;75;749545;-75
2023/05/08 05:29:00;;;;;;;6.90;6.30;;;;;;;9.33;100.00;98292.22;1683894;75;2921605;-76
2023/05/08 05:31:31;;;;;;;7.15;6.45;;;;;;;9.36;100.00;98291.31;1703494;75;823265;-75
2023/05/08 05:34:01;;;;;;;6.40;5.80;;;;;;;9.38;100.00;98300.59;1711206;75;867519;-76
2023/05/08 05:36:32;;;;;;;5.70;5.20;;;;;;;9.38;100.00;98297.88;1704549;75;740492;-77
2023/05/08 05:39:05;;;;;;;6.20;5.60;;;;;;;9.32;100.00;98299.66;1712693;75;709434;-77
2023/05/08 05:41:35;;;;;;;5.80;5.30;;;;;;;9.38;100.00;98289.66;1690234;75;1887415;-75
2023/05/08 05:44:05;;;;;;;8.00;7.30;;;;;;;9.07;100.00;98294.44;1687550;75;2844707;-78
2023/05/08 05:46:35;;;;;;;9.00;8.20;;;;;;;9.03;100.00;98291.81;1702468;75;934271;-78
2023/05/08 05:49:05;;;;;;;9.30;7.75;;;;;;;9.16;100.00;98288.97;1713495;75;680338;-76
2023/05/08 05:51:36;;;;;;;9.65;8.75;;;;;;;8.89;100.00;98301.31;1702232;75;852508;-76
2023/05/08 05:54:09;;;;;;;9.95;8.95;;;;;;;8.89;100.00;98295.84;1701016;75;1724722;-79
2023/05/08 05:56:39;;;;;;;8.30;7.40;;;;;;;9.17;100.00;98310.38;1701184;75;965952;-76
2023/05/08 05:59:09;;;;;;;8.80;7.95;;;;;;;9.04;100.00;98304.25;1713747;75;679265;-77
2023/05/08 06:01:40;;;;;;;7.40;6.70;;;;;;;9.26;100.00;98306.16;1704519;75;740414;-77
2023/05/08 06:04:10;;;;;;;7.50;6.70;;;;;;;9.22;100.00;98308.28;1713543;75;675586;-77
2023/05/08 06:06:40;;;;;;;8.80;8.00;;;;;;;9.24;100.00;98303.88;1704581;75;750875;-76
2023/05/08 06:09:13;;;;;;;7.60;6.90;;;;;;;9.30;100.00;98302.06;1712843;75;676522;-76
2023/05/08 06:11:43;;;;;;;9.35;8.45;;;;;;;9.24;100.00;98294.94;1704601;75;735214;-77
2023/05/08 06:14:14;;;;;;;8.90;8.10;;;;;;;9.29;100.00;98305.28;1713883;75;680275;-76
2023/05/08 06:16:44;;;;;;;9.10;8.20;;;;;;;9.17;100.00;98302.19;1705711;75;751023;-77
2023/05/08 06:19:14;;;;;;;8.45;7.65;;;;;;;9.34;100.00;98307.41;1714911;75;675432;-78
2023/05/08 06:21:44;;;;;;;8.35;7.55;;;;;;;9.37;100.00;98309.22;1691211;75;1882055;-75
2023/05/08 06:24:18;;;;;;;7.20;6.50;;;;;;;9.45;100.00;98315.16;1715817;75;676098;-79
2023/05/08 06:26:51;;;;;;;11.95;10.85;;;;;;;9.14;100.00;98313.28;1690741;75;2036095;-77
2023/05/08 06:29:23;;;;;;;10.25;9.35;;;;;;;9.18;100.00;98314.63;1714945;75;675678;-77
2023/05/08 06:31:54;;;;;;;8.10;7.40;;;;;;;9.48;100.00;98314.28;1705279;75;764165;-75
2023/05/08 06:34:24;;;;;;;7.70;7.00;;;;;;;9.51;100.00;98307.91;1713669;75;670753;-75
2023/05/08 06:36:54;;;;;;;5.60;5.10;;;;;;;9.62;100.00;98308.25;1704933;75;746535;-76
2023/05/08 06:39:27;;;;;;;6.30;5.70;;;;;;;9.62;100.00;98321.91;1713688;75;684541;-76
2023/05/08 06:41:57;;;;;;;8.15;7.35;;;;;;;9.53;100.00;98311.72;1678797;75;2857209;-76
2023/05/08 06:44:27;;;;;;;8.50;7.60;;;;;;;9.54;100.00;98309.72;1713413;75;741968;-76
2023/05/08 06:46:58;;;;;;;8.00;7.20;;;;;;;9.63;100.00;98315.22;1705117;75;738074;-75
2023/05/08 06:49:28;;;;;;;10.85;9.85;;;;;;;9.55;100.00;98317.47;1714104;75;683121;-76
2023/05/08 06:51:58;;;;;;;10.35;9.35;;;;;;;9.53;100.00;98319.91;1705199;75;746887;-76
2023/05/08 06:54:31;;;;;;;9.25;8.35;;;;;;;9.61;100.00;98317.63;1713665;75;675899;-74
2023/05/08 06:57:01;;;;;;;8.75;7.85;;;;;;;9.47;100.00;98321.69;1704996;75;783833;-76
2023/05/08 06:59:31;;;;;;;8.35;7.55;;;;;;;9.44;100.00;98332.78;1714082;75;676048;-76
2023/05/08 07:02:04;;;;;;;8.85;7.95;;;;;;;9.57;100.00;98330.69;1704716;75;752747;-78
2023/05/08 07:04:35;;;;;;;7.75;7.05;;;;;;;9.71;100.00;98332.09;1713878;75;691818;-76
2023/05/08 07:07:11;;;;;;;10.75;9.75;;;;;;;9.73;100.00;98330.41;1704466;75;745992;-77
2023/05/08 07:09:44;;;;;;;10.30;9.30;;;;;;;9.73;100.00;98333.16;1703578;75;830566;-76
2023/05/08 07:12:15;;;;;;;12.50;11.30;;;;;;;9.63;100.00;98337.09;1712847;75;679708;-76
2023/05/08 07:14:45;;;;;;;10.00;9.10;;;;;;;9.82;100.00;98332.41;1705078;75;682327;-77
2023/05/08 07:17:16;;;;;;;7.70;7.00;;;;;;;10.08;100.00;98340.31;1701112;75;1754833;-78
2023/05/08 07:19:46;;;;;;;7.85;7.15;;;;;;;10.21;100.00;98341.69;1704553;75;723774;-76
2023/05/08 07:22:16;;;;;;;7.00;6.30;;;;;;;10.21;100.00;98341.69;1713795;75;674716;-77
2023/05/08 07:24:49;;;;;;;7.60;6.90;;;;;;;10.22;100.00;98343.25;1705183;75;698280;-77
2023/05/08 07:27:19;;;;;;;7.05;6.35;;;;;;;10.48;100.00;98345.66;1713680;75;673354;-77
2023/05/08 07:29:49;;;;;;;6.00;5.40;;;;;;;10.53;100.00;98347.78;1705654;75;676371;-75
2023/05/08 07:32:19;;;;;;;6.60;6.00;;;;;;;10.64;100.00;98344.59;1713660;75;677386;-76
2023/05/08 07:34:49;;;;;;;7.60;6.90;;;;;;;10.68;100.00;98345.19;1705489;75;678332;-75
2023/05/08 07:37:19;;;;;;;6.90;6.30;;;;;;;10.73;100.00;98343.81;1713161;75;674753;-76
2023/05/08 07:39:52;;;;;;;7.40;6.40;;;;;;;10.77;100.00;98341.66;1705173;75;676253;-77
2023/05/08 07:42:22;;;;;;;7.50;6.80;;;;;;;10.85;100.00;98345.63;1713569;75;673932;-76
2023/05/08 07:44:53;;;;;;;7.50;6.80;;;;;;;10.74;100.00;98346.09;1704758;75;679242;-76
2023/05/08 07:47:23;;;;;;;9.35;8.35;;;;;;;10.78;100.00;98352.16;1712574;75;754891;-75
2023/05/08 07:49:53;;;;;;;7.90;7.20;;;;;;;10.93;100.00;98349.53;1680763;75;2807302;-76
2023/05/08 07:52:23;;;;;;;10.00;9.00;;;;;;;10.88;100.00;98350.91;1713401;75;685045;-75
2023/05/08 07:54:56;;;;;;;;;;;;;;;10.91;100.00;98348.50;1703080;75;885621;-77
2023/05/08 07:57:27;;;;;;;8.80;7.90;;;;;;;10.84;100.00;98349.56;1711309;75;924271;-77
2023/05/08 07:59:57;;;;;;;8.15;7.35;;;;;;;11.12;100.00;98357.72;1705824;75;681501;-77
2023/05/08 08:02:27;;;;;;;7.60;6.90;;;;;;;11.17;100.00;98357.84;1713107;75;680052;-75
2023/05/08 08:04:57;;;;;;;9.50;8.60;;;;;;;10.77;100.00;98347.91;1705172;75;686289;-76
2023/05/08 08:07:27;;;;;;;11.60;10.40;;;;;;;10.80;100.00;98348.94;1712214;75;813152;-76
2023/05/08 08:10:00;;;;;;;12.10;10.90;;;;;;;10.77;100.00;98347.16;1705565;75;709151;-76
2023/05/08 08:12:30;;;;;;;14.30;13.00;;;;;;;10.64;100.00;98359.03;1711425;75;886690;-77
2023/05/08 08:15:01;;;;;;;13.20;11.90;;;;;;;10.47;100.00;98357.09;1705608;75;672987;-78
2023/05/08 08:17:31;;;;;;;14.60;13.15;;;;;;;10.58;100.00;98351.88;1713547;75;684595;-78
2023/05/08 08:20:01;;;;;;;14.65;13.25;;;;;;;10.42;100.00;98355.72;1705317;75;674374;-77
2023/05/08 08:22:31;;;;;;;14.70;13.20;;;;;;;10.30;100.00;98348.44;1713462;75;673460;-77
2023/05/08 08:25:04;;;;;;;12.70;11.50;;;;;;;10.47;100.00;98344.16;1692240;75;1756327;-76
2023/05/08 08:27:34;;;;;;;12.70;11.40;;;;;;;10.49;100.00;98352.69;1714003;75;696951;-77
2023/05/08 08:30:04;;;;;;;14.80;13.20;;;;;;;10.31;100.00;98355.41;1704757;75;778204;-75
2023/05/08 08:32:34;;;;;;;13.00;11.80;;;;;;;10.40;100.00;98360.88;1701321;75;1731653;-76
2023/05/08 08:35:07;;;;;;;12.50;11.20;;;;;;;10.35;100.00;98359.53;1705012;75;676367;-77
2023/05/08 08:37:37;;;;;;;11.20;10.10;;;;;;;10.36;100.00;98363.75;1713185;75;675860;-75
2023/05/08 08:40:12;;;;;;;15.10;13.60;;;;;;;10.26;100.00;98364.22;1700782;75;949011;-76
2023/05/08 08:42:42;;;;;;;15.90;14.30;;;;;;;10.18;100.00;98369.97;1713658;75;671782;-76
2023/05/08 08:45:13;;;;;;;17.45;15.75;;;;;;;9.95;100.00;98365.84;1691234;75;1815708;-75
2023/05/08 08:47:46;;;;;;;18.25;16.40;;;;;;;9.84;100.00;98367.50;1713228;75;677616;-77
2023/05/08 08:50:17;;;;;;;19.60;17.70;;;;;;;9.85;100.00;98366.28;1702322;75;912037;-75
2023/05/08 08:52:57;;;;;;;15.10;13.60;;;;;;;10.11;100.00;98364.81;1699995;75;1858867;-76
2023/05/08 08:55:32;;;;;;;17.60;15.90;;;;;;;10.04;100.00;98362.38;1702258;75;950587;-77
2023/05/08 08:58:17;;;;;;;18.20;16.40;;;;;;;10.10;100.00;98366.03;1713719;75;673504;-75
2023/05/08 09:00:47;;;;;;;18.75;15.95;;;;;;;9.94;100.00;98378.00;1704963;75;757098;-76
2023/05/08 09:03:18;;;;;;;17.90;16.00;;;;;;;9.88;100.00;98371.59;1713700;75;678392;-77
2023/05/08 09:05:49;;;;;;;17.15;15.45;;;;;;;9.88;100.00;98371.59;1705743;75;730933;-76
2023/05/08 09:08:21;;;;;;;18.80;16.95;;;;;;;9.87;100.00;98363.88;1711305;75;918522;-77
2023/05/08 09:10:57;;;;;;;16.05;14.45;;;;;;;10.00;100.00;98369.97;1705286;75;753085;-76
2023/05/08 09:13:27;;;;;;;16.90;15.20;;;;;;;10.00;100.00;98367.97;1708207;75;736427;-74
2023/05/08 09:15:57;;;;;;;15.10;13.70;;;;;;;10.23;100.00;98369.38;1711121;75;942678;-75
2023/05/08 09:18:28;;;;;;;12.00;10.80;;;;;;;10.33;100.00;98369.41;1704265;75;845680;-75
2023/05/08 09:20:59;;;;;;;12.20;10.40;;;;;;;10.40;100.00;98369.84;1714415;75;680247;-75
2023/05/08 09:23:29;;;;;;;9.90;8.90;;;;;;;10.61;100.00;98365.44;1705851;75;684332;-76
2023/05/08 09:26:02;;;;;;;13.00;11.60;;;;;;;10.51;100.00;98366.66;1714678;75;676804;-75
2023/05/08 09:28:35;;;;;;;13.70;12.40;;;;;;;10.45;100.00;98371.97;1706955;75;681289;-77
2023/05/08 09:31:05;;;;;;;15.10;13.60;;;;;;;10.39;100.00;98378.50;1715096;75;682149;-77
2023/05/08 09:33:35;;;;;;;12.80;11.50;;;;;;;10.54;100.00;98373.97;1704519;75;929310;-75
2023/05/08 09:36:08;;;;;;;12.20;10.30;;;;;;;10.65;100.00;98381.69;1715017;75;674816;-75
2023/05/08 09:38:42;;;;;;;10.60;9.60;;;;;;;10.79;100.00;98381.06;1704222;75;908602;-77
2023/05/08 09:41:17;;;;;;;12.45;11.25;;;;;;;10.64;100.00;98378.19;1715551;75;679647;-76
2023/05/08 09:44:04;;;;;;;14.10;12.70;;;;;;;10.56;100.00;98374.28;1707343;75;683046;-77
2023/05/08 09:46:36;;;;;;;13.80;12.35;;;;;;;10.68;100.00;98380.81;1705997;75;681173;-76
2023/05/08 09:49:07;;;;;;;13.10;11.80;;;;;;;10.70;100.00;98383.81;1714771;75;685399;-75
2023/05/08 09:51:37;;;;;;;11.30;10.10;;;;;;;10.83;100.00;98376.19;1706514;75;686225;-75
2023/05/08 09:54:20;;;;;;;15.45;13.85;;;;;;;10.68;100.00;98388.22;1714877;75;721492;-76
2023/05/08 09:56:53;;;;;;;13.90;12.50;;;;;;;10.73;100.00;98379.44;1703768;75;932794;-75
2023/05/08 09:59:31;;;;;;;14.20;12.80;;;;;;;10.69;100.00;98387.78;1714160;75;669144;-77
2023/05/08 10:02:02;;;;;;;14.50;12.25;;;;;;;10.74;100.00;98389.91;1706302;75;732975;-75
2023/05/08 10:04:36;;;;;;;14.10;12.70;;;;;;;10.70;100.00;98392.03;1714133;75;673282;-75
2023/05/08 10:07:06;;;;;;;10.45;9.40;;;;;;;11.05;100.00;98386.94;1704905;75;751991;-77
2023/05/08 10:09:37;;;;;;;11.00;9.80;;;;;;;10.92;100.00;98389.13;1714053;75;768899;-75
2023/05/08 10:12:10;;;;;;;12.80;11.50;;;;;;;10.95;100.00;98382.72;1703235;75;916135;-77
2023/05/08 10:14:40;;;;;;;10.05;9.05;;;;;;;11.01;100.00;98389.09;1714205;75;679934;-76
2023/05/08 10:17:12;;;;;;;11.10;9.55;;;;;;;11.13;100.00;98389.38;1703936;75;806019;-79
2023/05/08 10:19:48;;;;;;;8.60;7.80;;;;;;;11.34;100.00;98382.16;1714157;75;677472;-76
2023/05/08 10:22:20;;;;;;;8.75;7.95;;;;;;;11.28;100.00;98390.22;1681480;75;2694539;-76
2023/05/08 10:24:56;;;;;;;7.50;6.70;;;;;;;11.31;100.00;98389.31;1714000;75;675771;-77
2023/05/08 10:27:41;;;;;;;8.00;7.20;;;;;;;11.42;100.00;98389.56;1705509;75;753522;-76
2023/05/08 10:30:15;;;;;;;9.60;8.70;;;;;;;11.49;100.00;98385.72;1691234;75;1923093;-75
2023/05/08 10:32:47;;;;;;;9.60;8.60;;;;;;;11.45;100.00;98394.13;1713711;75;733282;-75
2023/05/08 10:35:17;;;;;;;7.70;6.90;;;;;;;11.60;100.00;98387.97;1691760;75;1867757;-76
2023/05/08 10:37:50;;;;;;;11.30;10.10;;;;;;;11.29;100.00;98397.25;1713703;75;805795;-78
2023/05/08 10:40:21;;;;;;;10.00;8.70;;;;;;;11.45;100.00;98383.16;1707671;75;683042;-77
2023/05/08 10:42:54;;;;;;;10.10;9.10;;;;;;;11.56;100.00;98388.13;1715329;75;674185;-76
2023/05/08 10:45:24;;;;;;;7.40;6.70;;;;;;;11.70;100.00;98384.72;1707852;75;676411;-77
2023/05/08 10:48:07;;;;;;;8.90;8.00;;;;;;;11.61;100.00;98375.78;1716681;75;684672;-77
2023/05/08 10:50:55;;;;;;;7.30;6.55;;;;;;;11.79;100.00;98380.41;1706410;75;747904;-76
2023/05/08 10:53:37;;;;;;;9.10;7.00;;;;;;;11.80;100.00;98384.66;1707152;75;681265;-78
2023/05/08 10:56:08;;;;;;;7.20;6.50;;;;;;;11.81;100.00;98383.44;1714907;75;671857;-76
2023/05/08 10:58:43;;;;;;;7.25;6.35;;;;;;;11.80;100.00;98387.41;1704822;75;757755;-77
2023/05/08 11:01:18;;;;;;;8.95;8.05;;;;;;;11.68;100.00;98387.16;1710860;75;929348;-75
2023/05/08 11:03:54;;;;;;;9.20;8.20;;;;;;;11.65;100.00;98393.56;1714172;75;671575;-75
2023/05/08 11:06:51;;;;;;;14.30;12.85;;;;;;;11.41;100.00;98390.78;1704657;75;698874;-76
2023/05/08 11:09:30;;;;;;;9.60;8.60;;;;;;;11.77;100.00;98386.34;1704480;75;691963;-78
2023/05/08 11:12:13;;;;;;;7.70;7.00;;;;;;;11.95;100.00;98388.25;1710191;75;987845;-75
2023/05/08 11:14:47;;;;;;;6.95;6.25;;;;;;;11.92;100.00;98387.19;1704537;75;760078;-76
2023/05/08 11:17:26;;;;;;;13.20;11.80;;;;;;;11.58;100.00;98393.16;1714067;75;674309;-77
2023/05/08 11:20:02;;;;;;;14.35;12.85;;;;;;;11.48;100.00;98386.97;1704648;75;753567;-78
2023/05/08 11:22:34;;;;;;;12.20;11.00;;;;;;;11.54;100.00;98387.84;1707115;75;693551;-74
2023/05/08 11:25:08;;;;;;;14.90;13.40;;;;;;;11.29;100.00;98383.53;1713197;75;676063;-76
2023/05/08 11:28:18;;;;;;;15.50;13.80;;;;;;;11.25;100.00;98385.66;1691471;75;1855091;-76
2023/05/08 11:30:49;;;;;;;20.05;17.90;;;;;;;11.07;100.00;98383.75;1705041;75;676373;-76
2023/05/08 11:33:19;;;;;;;22.35;18.20;;;;;;;10.96;100.00;98388.94;1710557;75;909452;-78
2023/05/08 11:35:58;;;;;;;13.90;12.45;;;;;;;11.20;100.00;98386.31;1703942;75;814922;-76
2023/05/08 11:38:38;;;;;;;16.20;14.50;;;;;;;11.03;100.00;98378.44;1713249;75;681939;-76
2023/05/08 11:41:10;;;;;;;18.60;15.75;;;;;;;11.01;100.00;98386.34;1702675;75;847315;-74
2023/05/08 11:44:16;;;;;;;22.60;18.80;;;;;;;11.02;100.00;98385.13;1713848;75;675884;-76
2023/05/08 11:46:52;;;;;;;20.00;17.95;;;;;;;10.92;100.00;98391.88;1703867;75;758938;-76